Coden, Alabama
Current Conditions -  °F | °C
As of 4:53 AM on Saturday 01 Nov 2014 (Local Time) from KPQL Reporting Station
Clear Clear  
Wind Chill: 36°   Ceiling: Unl
Heat Index: 43°   Visibility: 10mi
Dew Point: 24°   Wind: 13mph
Humidity: 47%   Direction: 350°N
Pressure: 30.23"   Gusts: NA
Location:  30.38°N, 88.24°W
Report Text: KPQL 010953Z AUTO 35011KT 10SM CLR 06/M04 A3023 RMK AO2 SLP236 T00611044 TSNO
Loading
Personal Weather Stations






























Interactive Weather Map
Tropical Storm Tracking
New forecast layout! Learn more

10-Day Weather Forecast

Advertisements
Track Severe Weather on mobile